createdAt,value
2018-04-02T00:02:12.543Z,25.20
2018-04-02T00:04:41.462Z,25.90
2018-04-02T00:07:10.682Z,26.58
2018-04-02T00:09:40.443Z,25.00
2018-04-02T00:12:12.174Z,28.15
2018-04-02T00:14:43.450Z,28.30
2018-04-02T00:17:15.047Z,26.98
2018-04-02T00:19:43.151Z,24.27
2018-04-02T00:22:11.199Z,27.80
2018-04-02T00:24:41.108Z,26.92
2018-04-02T00:27:11.154Z,25.60
2018-04-02T00:29:40.118Z,27.58
2018-04-02T00:32:09.998Z,26.45
2018-04-02T00:34:38.062Z,27.15
2018-04-02T00:37:09.118Z,28.10
2018-04-02T00:39:41.002Z,27.70
2018-04-02T00:42:14.774Z,27.45
2018-04-02T00:44:43.054Z,27.05
2018-04-02T00:47:13.394Z,28.65
2018-04-02T00:49:45.795Z,28.67
2018-04-02T00:52:14.839Z,27.55
2018-04-02T00:54:44.814Z,27.95
2018-04-02T00:57:14.734Z,28.33
2018-04-02T00:59:54.734Z,28.20
2018-04-02T01:02:24.938Z,29.00
2018-04-02T01:04:54.030Z,28.38
2018-04-02T01:07:22.058Z,30.80
2018-04-02T01:09:51.013Z,32.03
2018-04-02T01:12:19.666Z,31.02
2018-04-02T01:14:49.141Z,30.77
2018-04-02T01:17:17.942Z,31.70
2018-04-02T01:19:52.846Z,33.00
2018-04-02T01:22:20.822Z,31.17
2018-04-02T01:24:52.109Z,32.05
2018-04-02T01:27:21.021Z,30.10
2018-04-02T01:29:56.123Z,31.12
2018-04-02T01:32:27.478Z,30.83
2018-04-02T01:35:07.562Z,32.65
2018-04-02T01:37:36.606Z,32.15
2018-04-02T01:40:05.586Z,32.67
2018-04-02T01:42:38.478Z,30.73
2018-04-02T01:45:06.517Z,32.13
2018-04-02T01:47:44.194Z,32.00
2018-04-02T01:50:13.134Z,33.35
2018-04-02T01:52:44.793Z,31.42
2018-04-02T01:55:13.738Z,32.88
2018-04-02T01:57:41.787Z,32.60
2018-04-02T02:00:10.722Z,36.60
2018-04-02T02:02:38.753Z,34.10
2018-04-02T02:05:10.882Z,36.45
2018-04-02T02:07:40.842Z,34.90
2018-04-02T02:10:11.029Z,35.47
2018-04-02T02:12:39.317Z,37.17
2018-04-02T02:15:10.361Z,37.80
2018-04-02T02:17:38.369Z,34.67
2018-04-02T02:20:06.522Z,34.65
2018-04-02T02:22:35.521Z,35.90
2018-04-02T02:25:03.582Z,35.03
2018-04-02T02:27:35.925Z,36.55
2018-04-02T02:30:12.070Z,34.80
2018-04-02T02:32:42.044Z,33.80
2018-04-02T02:35:10.276Z,36.10
2018-04-02T02:37:45.305Z,34.17
2018-04-02T02:40:13.699Z,39.33
2018-04-02T02:42:45.213Z,36.13
2018-04-02T02:45:21.815Z,36.80
2018-04-02T02:47:50.848Z,40.47
2018-04-02T02:50:19.927Z,40.10
2018-04-02T02:52:49.178Z,39.22
2018-04-02T02:55:17.226Z,37.35
2018-04-02T02:57:45.254Z,38.35
2018-04-02T03:00:17.649Z,40.35
2018-04-02T03:02:45.676Z,40.00
2018-04-02T03:05:16.969Z,39.17
2018-04-02T03:07:45.005Z,37.97
2018-04-02T03:10:18.013Z,37.50
2018-04-02T03:12:47.049Z,38.80
2018-04-02T03:15:18.478Z,36.83
2018-04-02T03:17:49.363Z,37.70
2018-04-02T03:20:36.452Z,38.38
2018-04-02T03:23:10.833Z,38.35
2018-04-02T03:25:42.369Z,38.47
2018-04-02T03:28:10.408Z,37.30
2018-04-02T03:30:38.458Z,41.05
2018-04-02T03:33:07.417Z,39.28
2018-04-02T03:35:36.597Z,40.65
2018-04-02T03:38:08.937Z,38.92
2018-04-02T03:40:39.245Z,40.08
2018-04-02T03:43:07.289Z,40.05
2018-04-02T03:45:39.084Z,42.78
2018-04-02T03:48:07.132Z,39.20
2018-04-02T03:50:36.077Z,39.97
2018-04-02T03:53:08.920Z,40.70
2018-04-02T03:55:39.024Z,42.22
2018-04-02T03:58:07.993Z,41.65
2018-04-02T04:00:40.501Z,42.75
2018-04-02T04:03:10.229Z,38.97
2018-04-02T04:05:38.329Z,39.05
2018-04-02T04:08:10.685Z,44.22
2018-04-02T04:10:43.616Z,40.40
2018-04-02T04:13:11.693Z,41.50
2018-04-02T04:15:39.745Z,41.10
2018-04-02T04:20:46.414Z,41.72
2018-04-02T04:23:16.457Z,39.97
2018-04-02T04:25:45.996Z,42.40
2018-04-02T04:28:14.072Z,41.03
2018-04-02T04:30:44.380Z,42.75
2018-04-02T04:33:20.784Z,41.88
2018-04-02T04:35:53.009Z,41.95
2018-04-02T04:38:21.673Z,42.72
2018-04-02T04:40:49.760Z,42.92
2018-04-02T04:43:17.860Z,43.50
2018-04-02T04:45:51.525Z,39.83
2018-04-02T04:48:21.508Z,42.83
2018-04-02T04:50:53.996Z,41.37
2018-04-02T04:53:27.800Z,40.47
2018-04-02T04:55:55.892Z,40.35
2018-04-02T04:58:28.237Z,41.80
2018-04-02T05:00:57.236Z,44.22
2018-04-02T05:03:26.249Z,41.58
2018-04-02T05:05:55.040Z,43.70
2018-04-02T05:08:28.188Z,42.62
2018-04-02T05:10:56.208Z,42.80
2018-04-02T05:13:31.280Z,41.00
2018-04-02T05:15:59.300Z,44.60
2018-04-02T05:18:28.136Z,43.58
2018-04-02T05:20:59.724Z,46.50
2018-04-02T05:23:28.714Z,46.90
2018-04-02T05:25:57.704Z,47.83
2018-04-02T05:28:32.612Z,47.53
2018-04-02T05:31:08.245Z,48.67
2018-04-02T05:33:39.196Z,45.08
2018-04-02T05:36:07.234Z,46.33
2018-04-02T05:38:35.252Z,45.42
2018-04-02T05:41:14.144Z,48.90
2018-04-02T05:43:42.180Z,47.42
2018-04-02T05:46:10.216Z,48.17
2018-04-02T05:48:44.448Z,48.30
2018-04-02T05:51:12.476Z,50.58
2018-04-02T05:53:44.180Z,45.90
2018-04-02T05:56:14.108Z,48.35
2018-04-02T05:58:42.888Z,49.53
2018-04-02T06:01:15.444Z,52.85
2018-04-02T06:03:45.388Z,50.85
2018-04-02T06:06:25.492Z,54.80
2018-04-02T06:08:59.216Z,52.08
2018-04-02T06:11:27.272Z,51.63
2018-04-02T06:13:58.838Z,52.62
2018-04-02T06:16:27.947Z,50.05
2018-04-02T06:19:02.359Z,49.80
2018-04-02T06:21:32.444Z,51.15
2018-04-02T06:24:00.475Z,50.95
2018-04-02T06:26:32.512Z,50.33
2018-04-02T06:29:01.363Z,50.92
2018-04-02T06:31:30.392Z,49.50
2018-04-02T06:34:04.856Z,50.45
2018-04-02T06:36:33.894Z,47.72
2018-04-02T06:39:01.947Z,47.03
2018-04-02T06:41:30.955Z,47.17
2018-04-02T06:44:11.968Z,46.97
2018-04-02T06:46:40.931Z,45.83
2018-04-02T06:49:15.424Z,41.22
2018-04-02T06:51:46.372Z,47.60
2018-04-02T06:54:14.404Z,47.17
2018-04-02T06:56:45.752Z,44.55
2018-04-02T06:59:15.716Z,45.03
2018-04-02T07:01:47.147Z,40.20
2018-04-02T07:04:17.178Z,38.17
2018-04-02T07:06:46.144Z,34.25
2018-04-02T07:09:17.608Z,34.28
2018-04-02T07:11:46.555Z,33.88
2018-04-02T07:14:14.587Z,33.80
2018-04-02T07:16:44.507Z,33.53
2018-04-02T07:19:13.463Z,34.00
2018-04-02T07:21:43.395Z,33.85
2018-04-02T07:24:23.823Z,33.05
2018-04-02T07:26:51.839Z,34.75
2018-04-02T07:29:24.681Z,31.75
2018-04-02T07:31:53.552Z,32.47
2018-04-02T07:34:23.472Z,32.22
2018-04-02T07:36:53.395Z,28.83
2018-04-02T07:39:22.428Z,28.90
2018-04-02T07:41:54.168Z,24.52
2018-04-02T07:44:36.223Z,22.10
2018-04-02T07:47:11.280Z,20.50
2018-04-02T07:49:43.371Z,20.45
2018-04-02T07:52:12.300Z,20.30
2018-04-02T07:54:40.335Z,19.90
2018-04-02T07:57:09.329Z,18.70
2018-04-02T07:59:42.924Z,16.97
2018-04-02T08:02:17.017Z,19.00
2018-04-02T08:04:46.035Z,19.90
2018-04-02T08:07:24.325Z,18.90
2018-04-02T08:12:51.687Z,18.40
2018-04-02T08:15:33.327Z,18.07
2018-04-02T08:18:05.645Z,17.90
2018-04-02T08:20:36.304Z,19.02
2018-04-02T08:23:06.348Z,16.80
2018-04-02T08:25:40.531Z,18.50
2018-04-02T08:28:13.215Z,17.33
2018-04-02T08:30:41.247Z,17.15
2018-04-02T08:33:13.659Z,17.63
2018-04-02T08:35:42.599Z,17.03
2018-04-02T08:38:12.523Z,16.87
2018-04-02T08:40:40.551Z,16.93
2018-04-02T08:43:19.012Z,16.80
2018-04-02T08:45:47.959Z,15.73
2018-04-02T08:48:31.311Z,14.80
2018-04-02T08:51:00.259Z,15.53
2018-04-02T08:53:29.243Z,14.00
2018-04-02T08:56:07.523Z,12.63
2018-04-02T08:58:46.443Z,14.27
2018-04-02T09:01:17.699Z,14.00
2018-04-02T09:03:51.431Z,13.60
2018-04-02T09:06:19.463Z,12.80
2018-04-02T09:08:47.512Z,13.70
2018-04-02T09:11:41.727Z,13.60
2018-04-02T09:17:07.903Z,12.67
2018-04-02T09:19:36.891Z,10.80
2018-04-02T09:22:04.930Z,10.30
2018-04-02T09:24:32.967Z,12.53
2018-04-02T09:27:06.028Z,11.50
2018-04-02T09:29:34.066Z,10.97
2018-04-02T09:32:10.071Z,11.60
2018-04-02T09:34:39.055Z,12.00
2018-04-02T09:37:12.711Z,11.53
2018-04-02T09:39:44.519Z,10.90
2018-04-02T09:42:16.428Z,10.50
2018-04-02T09:44:49.183Z,9.50
2018-04-02T09:47:20.806Z,10.30
2018-04-02T09:50:15.539Z,10.80
2018-04-02T09:52:48.114Z,9.97
2018-04-02T09:55:24.690Z,10.20
2018-04-02T09:57:58.557Z,10.53
2018-04-02T10:00:37.779Z,9.50
2018-04-02T10:03:13.811Z,9.60
2018-04-02T10:05:52.523Z,10.33
2018-04-02T10:08:28.302Z,8.70
2018-04-02T10:11:06.206Z,9.13
2018-04-02T10:13:41.950Z,9.30
2018-04-02T10:16:09.994Z,7.63
2018-04-02T10:18:39.924Z,9.87
2018-04-02T10:21:14.414Z,9.17
2018-04-02T10:23:46.528Z,8.90
2018-04-02T10:26:20.368Z,9.33
2018-04-02T10:29:06.348Z,9.17
2018-04-02T10:31:53.911Z,10.40
2018-04-02T10:34:36.735Z,9.43
2018-04-02T10:37:11.869Z,8.93
2018-04-02T10:39:49.466Z,9.00
2018-04-02T10:42:25.023Z,9.10
2018-04-02T10:45:05.582Z,9.37
2018-04-02T10:47:37.658Z,8.50
2018-04-02T10:53:07.692Z,8.53
2018-04-02T10:55:36.735Z,8.17
2018-04-02T10:58:28.662Z,9.03
2018-04-02T11:01:01.514Z,8.47
2018-04-02T11:03:33.175Z,8.87
2018-04-02T11:06:11.558Z,8.90
2018-04-02T11:08:45.278Z,8.00
2018-04-02T11:11:15.630Z,8.57
2018-04-02T11:13:48.102Z,8.80
2018-04-02T11:16:17.794Z,7.10
2018-04-02T11:18:46.761Z,7.47
2018-04-02T11:21:35.186Z,6.43
2018-04-02T11:24:03.198Z,7.30
2018-04-02T11:26:32.091Z,7.57
2018-04-02T11:29:00.170Z,7.00
2018-04-02T11:31:33.166Z,7.50
2018-04-02T11:34:06.047Z,8.40
2018-04-02T11:36:35.166Z,8.10
2018-04-02T11:39:09.125Z,6.67
2018-04-02T11:41:39.389Z,7.17
2018-04-02T11:44:08.154Z,6.90
2018-04-02T11:46:36.178Z,6.20
2018-04-02T11:49:07.450Z,6.87
2018-04-02T11:51:41.053Z,6.53
2018-04-02T11:54:11.074Z,7.40
2018-04-02T11:56:42.430Z,6.23
2018-04-02T11:59:17.726Z,7.50
2018-04-02T12:01:47.680Z,6.60
2018-04-02T12:04:21.262Z,7.07
2018-04-02T12:06:50.274Z,6.63
2018-04-02T12:09:31.085Z,6.80
2018-04-02T12:11:59.102Z,6.40
2018-04-02T12:14:27.093Z,6.77
2018-04-02T12:16:59.781Z,6.87
2018-04-02T12:19:39.990Z,5.73
2018-04-02T12:22:09.934Z,6.00
2018-04-02T12:24:45.341Z,5.43
2018-04-02T12:27:25.077Z,4.20
2018-04-02T12:29:59.650Z,4.80
2018-04-02T12:32:30.681Z,5.17
2018-04-02T12:35:05.982Z,5.23
2018-04-02T12:37:37.038Z,4.50
2018-04-02T12:40:10.670Z,5.43
2018-04-02T12:42:39.722Z,4.87
2018-04-02T12:45:08.662Z,5.70
2018-04-02T12:47:41.418Z,5.33
2018-04-02T12:50:09.542Z,5.27
2018-04-02T12:52:40.222Z,4.50
2018-04-02T12:55:10.246Z,4.90
2018-04-02T12:57:43.998Z,4.93
2018-04-02T13:00:12.002Z,4.80
2018-04-02T13:02:40.034Z,4.93
2018-04-02T13:05:08.044Z,4.57
2018-04-02T13:07:38.094Z,4.20
2018-04-02T13:10:13.602Z,4.30
2018-04-02T13:12:43.537Z,4.83
2018-04-02T13:15:14.725Z,4.40
2018-04-02T13:17:42.945Z,4.00
2018-04-02T13:20:11.026Z,3.60
2018-04-02T13:22:39.042Z,4.73
2018-04-02T13:25:09.005Z,3.70
2018-04-02T13:27:38.901Z,3.90
2018-04-02T13:30:08.830Z,4.13
2018-04-02T13:32:36.853Z,4.03
2018-04-02T13:35:08.689Z,3.57
2018-04-02T13:37:38.662Z,3.67
2018-04-02T13:40:06.681Z,3.23
2018-04-02T13:42:37.373Z,3.00
2018-04-02T13:48:04.434Z,3.07
2018-04-02T13:50:46.777Z,3.00
2018-04-02T13:53:15.557Z,3.30
2018-04-02T13:55:43.558Z,2.30
2018-04-02T13:58:14.533Z,2.70
2018-04-02T14:00:48.154Z,3.03
2018-04-02T14:03:27.751Z,2.87
2018-04-02T14:06:02.577Z,3.00
2018-04-02T14:08:33.653Z,2.60
2018-04-02T14:11:14.085Z,2.60
2018-04-02T14:13:43.021Z,2.50
2018-04-02T14:16:11.997Z,3.87
2018-04-02T14:18:47.313Z,3.30
2018-04-02T14:21:17.241Z,3.07
2018-04-02T14:23:46.148Z,2.90
2018-04-02T14:26:17.690Z,2.33
2018-04-02T14:28:49.341Z,2.83
2018-04-02T14:31:33.881Z,2.77
2018-04-02T14:34:27.377Z,2.63
2018-04-02T14:36:55.429Z,2.83
2018-04-02T14:39:28.516Z,2.60
2018-04-02T14:42:01.283Z,2.33
2018-04-02T14:44:31.257Z,2.47
2018-04-02T14:46:59.240Z,1.80
2018-04-02T14:49:40.591Z,2.50
2018-04-02T14:52:10.591Z,1.97
2018-04-02T14:54:38.605Z,2.10
2018-04-02T14:57:16.428Z,2.30
2018-04-02T14:59:47.504Z,2.10
2018-04-02T15:02:16.696Z,2.03
2018-04-02T15:04:48.025Z,1.60
2018-04-02T15:10:09.797Z,2.30
2018-04-02T15:12:41.036Z,2.30
2018-04-02T15:15:27.265Z,1.93
2018-04-02T15:17:59.435Z,2.30
2018-04-02T15:20:32.197Z,1.70
2018-04-02T15:23:04.244Z,2.00
2018-04-02T15:25:36.463Z,2.03
2018-04-02T15:28:08.481Z,1.80
2018-04-02T15:30:36.513Z,2.00
2018-04-02T15:33:14.656Z,1.70
2018-04-02T15:35:48.440Z,2.03
2018-04-02T15:38:18.232Z,1.93
2018-04-02T15:40:49.222Z,1.60
2018-04-02T15:43:23.604Z,2.37
2018-04-02T15:46:02.460Z,2.00
2018-04-02T15:48:32.356Z,1.70
2018-04-02T15:51:01.396Z,1.60
2018-04-02T15:53:36.557Z,1.97
2018-04-02T15:56:13.436Z,2.20
2018-04-02T15:58:52.160Z,2.10
2018-04-02T16:01:27.910Z,2.03
2018-04-02T16:03:59.916Z,1.90
2018-04-02T16:06:27.924Z,1.97
2018-04-02T16:08:57.872Z,1.83
2018-04-02T16:11:27.792Z,2.33
2018-04-02T16:14:00.789Z,1.93
2018-04-02T16:16:42.000Z,1.80
2018-04-02T16:19:12.688Z,1.70
2018-04-02T16:22:00.800Z,1.53
2018-04-02T16:24:29.720Z,1.67
2018-04-02T16:27:04.787Z,1.27
2018-04-02T16:29:33.756Z,1.63
2018-04-02T16:32:09.991Z,1.60
2018-04-02T16:34:39.900Z,2.07
2018-04-02T16:37:09.808Z,1.70
2018-04-02T16:39:38.781Z,1.90
2018-04-02T16:42:13.256Z,1.83
2018-04-02T16:44:48.673Z,1.70
2018-04-02T16:47:16.705Z,1.63
2018-04-02T16:49:48.532Z,1.73
2018-04-02T16:52:17.535Z,2.27
2018-04-02T16:54:49.884Z,2.00
2018-04-02T16:57:25.468Z,2.17
2018-04-02T16:59:57.072Z,2.23
2018-04-02T17:02:25.084Z,1.73
2018-04-02T17:04:56.632Z,2.37
2018-04-02T17:07:28.584Z,2.53
2018-04-02T17:10:07.988Z,2.03
2018-04-02T17:12:37.944Z,2.03
2018-04-02T17:15:07.861Z,1.90
2018-04-02T17:17:35.876Z,2.30
2018-04-02T17:20:04.869Z,2.43
2018-04-02T17:22:32.816Z,3.10
2018-04-02T17:25:02.476Z,2.73
2018-04-02T17:27:30.484Z,2.80
2018-04-02T17:30:01.188Z,2.80
2018-04-02T17:32:29.192Z,3.03
2018-04-02T17:35:00.413Z,2.30
2018-04-02T17:37:28.432Z,2.60
2018-04-02T17:40:04.712Z,2.10
2018-04-02T17:42:38.539Z,2.60
2018-04-02T17:45:18.168Z,3.03
2018-04-02T17:47:48.100Z,3.00
2018-04-02T17:50:23.816Z,3.00
2018-04-02T17:52:56.828Z,4.40
2018-04-02T17:55:26.744Z,3.47
2018-04-02T17:57:54.796Z,3.20
2018-04-02T18:00:28.789Z,2.93
2018-04-02T18:02:57.723Z,2.63
2018-04-02T18:05:25.740Z,3.40
2018-04-02T18:07:57.439Z,2.63
2018-04-02T18:10:25.465Z,3.03
2018-04-02T18:12:53.480Z,4.37
2018-04-02T18:15:21.483Z,3.87
2018-04-02T18:17:49.496Z,3.40
2018-04-02T18:20:19.429Z,3.07
2018-04-02T18:22:51.803Z,3.60
2018-04-02T18:25:24.530Z,3.60
2018-04-02T18:27:58.174Z,3.70
2018-04-02T18:30:27.075Z,2.90
2018-04-02T18:33:02.383Z,3.37
2018-04-02T18:35:32.340Z,3.10
2018-04-02T18:38:02.379Z,2.37
2018-04-02T18:40:35.123Z,2.97
2018-04-02T18:43:03.352Z,3.23
2018-04-02T18:45:34.788Z,2.80
2018-04-02T18:48:08.436Z,2.60
2018-04-02T18:50:40.431Z,2.37
2018-04-02T18:53:09.424Z,2.70
2018-04-02T18:55:39.548Z,2.50
2018-04-02T18:58:26.408Z,2.30
2018-04-02T19:01:02.480Z,2.67
2018-04-02T19:03:31.525Z,2.70
2018-04-02T19:06:01.516Z,2.53
2018-04-02T19:08:31.520Z,2.30
2018-04-02T19:11:02.468Z,3.40
2018-04-02T19:13:32.487Z,2.50
2018-04-02T19:16:02.824Z,2.80
2018-04-02T19:18:30.856Z,3.40
2018-04-02T19:20:59.216Z,3.03
2018-04-02T19:23:27.252Z,2.70
2018-04-02T19:25:56.068Z,7.40
2018-04-02T19:28:24.105Z,3.03
2018-04-02T19:30:52.880Z,3.03
2018-04-02T19:33:26.531Z,2.37
2018-04-02T19:35:54.560Z,2.93
2018-04-02T19:38:23.392Z,2.73
2018-04-02T19:40:59.600Z,3.20
2018-04-02T19:43:37.980Z,3.10
2018-04-02T19:46:07.891Z,2.87
2018-04-02T19:48:36.903Z,2.60
2018-04-02T19:51:08.276Z,3.37
2018-04-02T19:53:42.547Z,2.23
2018-04-02T19:56:21.724Z,2.30
2018-04-02T19:58:49.748Z,2.60
2018-04-02T20:01:17.796Z,1.90
2018-04-02T20:03:45.835Z,3.23
2018-04-02T20:06:13.867Z,2.77
2018-04-02T20:08:45.151Z,2.50
2018-04-02T20:11:13.763Z,2.50
2018-04-02T20:13:43.775Z,2.60
2018-04-02T20:16:13.567Z,2.57
2018-04-02T20:18:42.572Z,2.93
2018-04-02T20:21:13.576Z,2.40
2018-04-02T20:23:43.619Z,2.60
2018-04-02T20:26:16.191Z,2.43
2018-04-02T20:28:48.909Z,1.90
2018-04-02T20:31:20.703Z,2.10
2018-04-02T20:33:52.321Z,1.70
2018-04-02T20:36:25.047Z,2.37
2018-04-02T20:38:57.819Z,2.60
2018-04-02T20:41:33.827Z,1.90
2018-04-02T20:44:01.903Z,2.00
2018-04-02T20:46:35.675Z,1.80
2018-04-02T20:49:04.675Z,2.10
2018-04-02T20:51:38.343Z,1.63
2018-04-02T20:54:07.372Z,2.20
2018-04-02T20:56:38.526Z,2.13
2018-04-02T20:59:10.255Z,2.43
2018-04-02T21:01:42.875Z,1.90
2018-04-02T21:04:13.295Z,2.13
2018-04-02T21:06:41.347Z,1.53
2018-04-02T21:09:16.538Z,2.23
2018-04-02T21:11:44.533Z,1.93
2018-04-02T21:14:17.843Z,1.60
2018-04-02T21:16:51.246Z,1.60
2018-04-02T21:19:25.160Z,1.47
2018-04-02T21:21:57.493Z,1.40
2018-04-02T21:24:25.900Z,1.60
2018-04-02T21:26:56.863Z,1.70
2018-04-02T21:29:28.338Z,1.50
2018-04-02T21:31:56.791Z,1.40
2018-04-02T21:34:24.883Z,1.43
2018-04-02T21:36:56.294Z,1.23
2018-04-02T21:39:30.920Z,1.43
2018-04-02T21:42:00.918Z,1.63
2018-04-02T21:44:36.000Z,1.53
2018-04-02T21:47:04.134Z,1.80
2018-04-02T21:49:35.766Z,1.40
2018-04-02T21:52:08.282Z,2.00
2018-04-02T21:54:37.225Z,1.40
2018-04-02T21:57:07.255Z,1.80
2018-04-02T21:59:36.235Z,1.30
2018-04-02T22:02:04.302Z,1.60
2018-04-02T22:04:32.355Z,1.43
2018-04-02T22:07:08.378Z,1.50
2018-04-02T22:09:48.484Z,1.27
2018-04-02T22:12:18.967Z,1.47
2018-04-02T22:14:48.978Z,1.47
2018-04-02T22:17:17.214Z,1.70
2018-04-02T22:19:50.120Z,1.77
2018-04-02T22:22:20.089Z,1.60
2018-04-02T22:24:48.153Z,1.80
2018-04-02T22:27:16.162Z,1.73
2018-04-02T22:29:49.935Z,1.47
2018-04-02T22:32:17.966Z,1.33
2018-04-02T22:34:46.058Z,1.40
2018-04-02T22:37:14.120Z,1.67
2018-04-02T22:39:46.878Z,1.80
2018-04-02T22:42:23.394Z,1.50
2018-04-02T22:44:51.446Z,1.70
2018-04-02T22:47:20.514Z,1.50
2018-04-02T22:49:49.502Z,1.60
2018-04-02T22:52:19.486Z,1.40
2018-04-02T22:54:53.782Z,1.50
2018-04-02T22:57:26.073Z,1.53
2018-04-02T22:59:54.106Z,1.43
2018-04-02T23:02:23.361Z,1.30
2018-04-02T23:04:53.234Z,1.30
2018-04-02T23:07:31.294Z,1.50
2018-04-02T23:10:05.131Z,1.50
2018-04-02T23:12:38.149Z,1.60
2018-04-02T23:15:07.198Z,1.70
2018-04-02T23:17:37.169Z,1.60
2018-04-02T23:20:06.170Z,1.57
2018-04-02T23:22:48.722Z,1.57
2018-04-02T23:25:16.753Z,1.43
2018-04-02T23:27:46.513Z,1.50
2018-04-02T23:30:15.585Z,1.43
2018-04-02T23:32:48.525Z,2.00
2018-04-02T23:35:16.554Z,1.27
2018-04-02T23:37:44.589Z,1.60
2018-04-02T23:40:19.160Z,1.60
2018-04-02T23:42:50.341Z,1.30
2018-04-02T23:45:18.397Z,2.60
2018-04-02T23:47:47.633Z,1.47
2018-04-02T23:50:17.598Z,1.40
2018-04-02T23:52:45.690Z,1.30
2018-04-02T23:55:14.734Z,1.40
2018-04-02T23:57:44.721Z,1.40
